Time;durP1;ratioP1;P1;durP2;ratioP2;P2;SDS_P1;SDS_P2;PMS_P1;PMS_P2;Temp;Humidity;BMP_temperature;BMP_pressure;BME280_temperature;BME280_humidity;BME280_pressure;Samples;Min_cycle;Max_cycle;Signal;HPM_P1;HPM_P2
2023/01/04 00:00:08;;;;;;;18.25;3.08;;;;;;;9.87;100.00;101344.56;5078464;28;20029;-71
2023/01/04 00:02:34;;;;;;;20.63;3.85;;;;;;;9.90;100.00;101349.56;5095997;28;20036;-71
2023/01/04 00:04:59;;;;;;;12.30;2.90;;;;;;;9.93;100.00;101348.19;5068247;28;20085;-71
2023/01/04 00:07:25;;;;;;;18.38;3.50;;;;;;;9.92;100.00;101347.34;5061825;28;20032;-71
2023/01/04 00:09:50;;;;;;;22.05;3.35;;;;;;;9.93;100.00;101345.41;5052501;28;20428;-71
2023/01/04 00:12:16;;;;;;;15.38;3.05;;;;;;;9.94;100.00;101341.53;5061283;28;20043;-71
2023/01/04 00:14:41;;;;;;;28.25;3.47;;;;;;;9.99;100.00;101345.16;5064430;28;20036;-72
2023/01/04 00:17:06;;;;;;;22.80;3.60;;;;;;;10.00;100.00;101344.06;5098403;28;20476;-71
2023/01/04 00:19:32;;;;;;;16.05;2.75;;;;;;;9.98;100.00;101337.13;5064119;28;20051;-71
2023/01/04 00:21:57;;;;;;;13.23;2.67;;;;;;;9.96;100.00;101340.16;5064543;28;20036;-71
2023/01/04 00:24:23;;;;;;;19.05;2.80;;;;;;;10.00;100.00;101330.19;5055818;28;20028;-71
2023/01/04 00:26:48;;;;;;;20.23;2.92;;;;;;;10.02;100.00;101330.72;5073945;28;20119;-72
2023/01/04 00:29:14;;;;;;;17.98;3.00;;;;;;;10.04;100.00;101322.16;5098027;28;20089;-71
2023/01/04 00:31:39;;;;;;;13.30;3.00;;;;;;;10.01;100.00;101326.31;5081049;28;20028;-71
2023/01/04 00:34:05;;;;;;;13.32;2.65;;;;;;;10.04;100.00;101328.53;5064439;28;20032;-71
2023/01/04 00:36:31;;;;;;;16.38;3.20;;;;;;;10.03;100.00;101331.59;5063874;28;20044;-71
2023/01/04 00:39:06;;;;;;;17.00;2.88;;;;;;;10.05;100.00;101334.91;5060878;28;20036;-72
2023/01/04 00:41:36;;;;;;;16.10;2.55;;;;;;;10.05;100.00;101332.97;5062325;28;20035;-71
2023/01/04 00:44:03;;;;;;;12.45;2.40;;;;;;;10.06;100.00;101326.34;5054600;28;20062;-71
2023/01/04 00:46:29;;;;;;;16.33;3.20;;;;;;;10.09;100.00;101335.22;5097638;28;20372;-71
2023/01/04 00:48:54;;;;;;;12.68;2.60;;;;;;;10.11;100.00;101321.91;5080282;28;20062;-71
2023/01/04 00:51:20;;;;;;;16.88;2.53;;;;;;;10.11;100.00;101324.66;5080464;28;20039;-71
2023/01/04 00:53:45;;;;;;;15.68;3.05;;;;;;;10.11;100.00;101321.91;5064292;28;20032;-71
2023/01/04 00:56:11;;;;;;;23.80;3.08;;;;;;;10.11;100.00;101324.66;5064152;28;20028;-71
2023/01/04 00:58:36;;;;;;;14.25;3.08;;;;;;;10.13;100.00;101322.47;5060698;28;20025;-71
2023/01/04 01:01:08;;;;;;;12.45;2.78;;;;;;;10.15;100.00;101317.50;5095994;28;20062;-72
2023/01/04 01:03:33;;;;;;;14.68;2.70;;;;;;;10.11;100.00;101319.94;5079909;28;20060;-72
2023/01/04 01:06:03;;;;;;;20.15;2.70;;;;;;;10.13;100.00;101325.25;5062972;28;20396;-72
2023/01/04 01:08:29;;;;;;;23.88;2.42;;;;;;;10.13;100.00;101319.69;5063884;28;20056;-72
2023/01/04 01:10:55;;;;;;;16.50;2.75;;;;;;;10.13;100.00;101319.69;5080624;28;20028;-72
2023/01/04 01:13:21;;;;;;;18.38;2.97;;;;;;;10.13;100.00;101311.38;5063482;28;20028;-72
2023/01/04 01:15:46;;;;;;;14.88;2.85;;;;;;;10.13;100.00;101316.91;5046741;28;20028;-71
2023/01/04 01:18:12;;;;;;;18.20;2.65;;;;;;;10.16;100.00;101321.91;5063190;28;20077;-72
2023/01/04 01:20:42;;;;;;;12.60;2.50;;;;;;;10.16;100.00;101314.41;5046779;28;20035;-72
2023/01/04 01:23:09;;;;;;;16.42;2.97;;;;;;;10.16;100.00;101308.03;5060290;28;20029;-72
2023/01/04 01:25:35;;;;;;;19.50;2.70;;;;;;;10.18;100.00;101312.22;5063244;28;20027;-72
2023/01/04 01:28:00;;;;;;;14.32;2.17;;;;;;;10.20;100.00;101315.56;5096817;28;20032;-71
2023/01/04 01:30:26;;;;;;;14.70;2.47;;;;;;;10.19;100.00;101322.19;5063310;28;20028;-71
2023/01/04 01:32:51;;;;;;;15.75;2.53;;;;;;;10.21;100.00;101321.94;5079892;28;20028;-71
2023/01/04 01:35:16;;;;;;;24.25;2.42;;;;;;;10.21;100.00;101314.44;5063166;28;20036;-71
2023/01/04 01:37:42;;;;;;;14.05;2.30;;;;;;;10.21;100.00;101319.16;5062866;28;20040;-71
2023/01/04 01:40:08;;;;;;;19.75;2.65;;;;;;;10.22;100.00;101326.38;5079629;28;20031;-72
2023/01/04 01:42:34;;;;;;;21.27;2.60;;;;;;;10.23;100.00;101331.69;5086698;28;20020;-72
2023/01/04 01:45:01;;;;;;;12.27;2.00;;;;;;;10.22;100.00;101351.38;5090558;28;20396;-71
2023/01/04 01:47:32;;;;;;;20.92;3.03;;;;;;;10.23;100.00;101339.16;5080010;28;20023;-71
2023/01/04 01:49:58;;;;;;;15.75;2.65;;;;;;;10.23;100.00;101342.78;5063325;28;20036;-71
2023/01/04 01:52:26;;;;;;;16.98;2.53;;;;;;;10.22;100.00;101343.91;5062575;28;20039;-71
2023/01/04 01:54:57;;;;;;;12.23;2.28;;;;;;;10.22;100.00;101352.22;5066705;28;20028;-71
2023/01/04 01:57:24;;;;;;;17.00;2.10;;;;;;;10.22;100.00;101345.81;5061075;28;20116;-71
2023/01/04 01:59:50;;;;;;;11.90;2.53;;;;;;;10.23;100.00;101358.59;5079257;28;20157;-71
2023/01/04 02:02:15;;;;;;;12.95;1.95;;;;;;;10.22;100.00;101343.91;5062481;28;20048;-72
2023/01/04 02:04:43;;;;;;;14.70;2.60;;;;;;;10.25;100.00;101348.03;5095850;28;20023;-71
2023/01/04 02:07:09;;;;;;;10.88;2.08;;;;;;;10.23;100.00;101348.31;5061949;28;20028;-71
2023/01/04 02:09:34;;;;;;;13.80;2.30;;;;;;;10.25;100.00;101345.25;5075758;28;20032;-71
2023/01/04 02:12:00;;;;;;;15.77;2.35;;;;;;;10.22;100.00;101352.22;5030664;28;20024;-71
2023/01/04 02:14:28;;;;;;;12.38;2.20;;;;;;;10.24;100.00;101354.72;5062290;28;20031;-72
2023/01/04 02:17:20;;;;;;;13.48;2.08;;;;;;;10.23;100.00;101359.44;5062254;28;20032;-71
2023/01/04 02:20:22;;;;;;;16.63;2.17;;;;;;;10.24;100.00;101363.03;5096500;28;20040;-71
2023/01/04 02:22:57;;;;;;;14.80;2.33;;;;;;;10.23;100.00;101366.94;5095786;28;20040;-72
2023/01/04 02:25:38;;;;;;;15.73;2.30;;;;;;;10.22;100.00;101374.44;5083451;28;20107;-71
2023/01/04 02:28:37;;;;;;;15.13;2.10;;;;;;;10.22;100.00;101368.03;5095901;28;20028;-71
2023/01/04 02:31:10;;;;;;;15.15;2.17;;;;;;;10.24;100.00;101374.16;5058677;28;20113;-71
2023/01/04 02:33:48;;;;;;;13.20;2.20;;;;;;;10.22;100.00;101368.88;5073087;28;20473;-71
2023/01/04 02:36:37;;;;;;;18.08;2.38;;;;;;;10.21;100.00;101375.53;5072269;28;20075;-71
2023/01/04 02:39:34;;;;;;;13.73;2.20;;;;;;;10.21;100.00;101369.13;5068246;28;20660;-71
2023/01/04 02:42:17;;;;;;;13.05;2.25;;;;;;;10.21;100.00;101369.97;5043830;28;20024;-71
2023/01/04 02:44:58;;;;;;;15.18;2.78;;;;;;;10.18;100.00;101362.19;5091811;28;20032;-72
2023/01/04 02:50:35;;;;;;;12.75;2.47;;;;;;;10.15;100.00;101373.00;5096601;28;20028;-72
2023/01/04 02:53:07;;;;;;;19.48;2.55;;;;;;;10.16;100.00;101369.09;5078103;28;20025;-72
2023/01/04 02:55:39;;;;;;;14.88;2.22;;;;;;;10.14;100.00;101365.75;5045270;28;20445;-71
2023/01/04 02:58:09;;;;;;;17.83;2.83;;;;;;;10.16;100.00;101374.66;5074844;28;20033;-72
2023/01/04 03:06:14;;;;;;;24.88;3.22;;;;;;;10.14;100.00;101365.75;5069136;28;20032;-72
2023/01/04 03:06:26;;;;;;;14.82;2.70;;;;;;;10.11;100.00;101366.31;5065670;28;20090;-72
2023/01/04 03:09:03;;;;;;;18.92;2.80;;;;;;;10.11;100.00;101367.13;5044896;28;20507;-72
2023/01/04 03:14:20;;;;;;;16.98;2.58;;;;;;;10.11;100.00;101377.41;5053916;28;20024;-72
2023/01/04 03:16:46;;;;;;;20.33;3.03;;;;;;;10.10;100.00;101371.03;5077782;28;20024;-72
2023/01/04 03:19:11;;;;;;;16.95;2.80;;;;;;;10.10;100.00;101372.97;5078034;28;20103;-71
2023/01/04 03:21:39;;;;;;;25.63;3.30;;;;;;;10.11;100.00;101380.19;5044659;28;20020;-71
2023/01/04 03:35:47;;;;;;;20.10;4.03;;;;;;;10.12;100.00;101368.00;5065721;28;20470;-72
2023/01/04 03:49:44;;;;;;;27.42;3.65;;;;;;;10.10;100.00;101353.53;5080310;28;20043;-71
2023/01/04 03:52:10;;;;;;;19.02;3.78;;;;;;;10.11;100.00;101341.31;5041001;28;20024;-71
2023/01/04 03:54:37;;;;;;;28.80;4.88;;;;;;;10.10;100.00;101348.00;5058126;28;20103;-71
2023/01/04 03:57:03;;;;;;;25.35;4.13;;;;;;;10.11;100.00;101339.38;5094403;28;20032;-71
2023/01/04 03:59:28;;;;;;;30.10;4.93;;;;;;;10.11;100.00;101344.94;5060906;28;20502;-71
2023/01/04 04:01:54;;;;;;;25.40;4.63;;;;;;;10.10;100.00;101334.13;5077729;28;20020;-71
2023/01/04 04:09:48;;;;;;;29.13;4.38;;;;;;;10.06;100.00;101339.38;5074514;28;20028;-71
2023/01/04 04:12:13;;;;;;;29.50;5.15;;;;;;;10.05;100.00;101338.53;5090407;28;20047;-71
2023/01/04 04:14:39;;;;;;;38.00;5.20;;;;;;;10.06;100.00;101329.09;5043978;28;20057;-71
2023/01/04 04:17:04;;;;;;;31.83;4.72;;;;;;;10.09;100.00;101332.47;5076876;28;20028;-71
2023/01/04 04:19:30;;;;;;;35.28;5.50;;;;;;;10.09;100.00;101333.28;5076984;28;20534;-71
2023/01/04 04:21:55;;;;;;;26.48;4.40;;;;;;;10.07;100.00;101333.53;5060783;28;20024;-71
2023/01/04 04:24:23;;;;;;;37.75;4.93;;;;;;;10.07;100.00;101333.53;5069179;28;20029;-71
2023/01/04 04:26:49;;;;;;;26.63;4.60;;;;;;;10.07;100.00;101322.44;5070582;28;20053;-71
2023/01/04 04:29:15;;;;;;;30.75;5.05;;;;;;;10.08;100.00;101328.81;5073770;28;20029;-71
2023/01/04 04:31:40;;;;;;;30.23;7.30;;;;;;;10.11;100.00;101330.22;5056255;28;20039;-71
2023/01/04 04:34:06;;;;;;;27.55;5.32;;;;;;;10.11;100.00;101324.66;5057097;28;20025;-71
2023/01/04 04:36:31;;;;;;;30.27;6.13;;;;;;;10.12;100.00;101315.25;5042460;28;20661;-71
2023/01/04 04:38:57;;;;;;;28.60;5.45;;;;;;;10.09;100.00;101313.84;5073528;28;20448;-71
2023/01/04 04:41:37;;;;;;;34.15;5.50;;;;;;;10.11;100.00;101319.13;5040061;28;20106;-71
2023/01/04 04:44:06;;;;;;;35.47;5.32;;;;;;;10.12;100.00;101318.88;5073371;28;20070;-71
2023/01/04 04:46:32;;;;;;;35.03;6.13;;;;;;;10.13;100.00;101320.53;5064268;28;20042;-71
2023/01/04 04:48:57;;;;;;;36.33;6.22;;;;;;;10.13;100.00;101322.47;5063761;28;20028;-71
2023/01/04 04:51:23;;;;;;;45.40;6.72;;;;;;;10.15;100.00;101323.03;5076311;28;20405;-71
2023/01/04 04:53:48;;;;;;;36.63;6.00;;;;;;;10.15;100.00;101312.75;5072079;28;20020;-71
2023/01/04 04:56:14;;;;;;;28.38;5.65;;;;;;;10.19;100.00;101310.28;5081023;28;20095;-71
2023/01/04 04:58:39;;;;;;;38.55;5.20;;;;;;;10.18;100.00;101309.44;5080583;28;20024;-72
2023/01/04 05:01:05;;;;;;;30.60;5.72;;;;;;;10.18;100.00;101316.94;5078056;28;20507;-72
2023/01/04 05:03:30;;;;;;;33.42;5.63;;;;;;;10.19;100.00;101313.03;5087974;28;20044;-71
2023/01/04 05:05:56;;;;;;;32.15;5.43;;;;;;;10.20;100.00;101320.28;5060295;28;20054;-72
2023/01/04 05:08:21;;;;;;;36.63;5.45;;;;;;;10.20;100.00;101315.56;5071652;28;20035;-71
2023/01/04 05:10:47;;;;;;;33.95;4.95;;;;;;;10.22;100.00;101324.47;5080432;28;20028;-71
2023/01/04 05:13:12;;;;;;;40.55;5.55;;;;;;;10.21;100.00;101327.50;5080491;28;20036;-72
2023/01/04 05:15:43;;;;;;;29.08;5.20;;;;;;;10.20;100.00;101328.63;5063702;28;20070;-71
2023/01/04 05:18:10;;;;;;;29.27;4.82;;;;;;;10.20;100.00;101332.22;5043321;28;20025;-72
2023/01/04 05:20:35;;;;;;;32.17;5.32;;;;;;;10.19;100.00;101329.69;5078847;28;20103;-71
2023/01/04 05:23:01;;;;;;;33.65;5.30;;;;;;;10.19;100.00;101330.53;5080072;28;20024;-71
2023/01/04 05:25:26;;;;;;;38.20;5.63;;;;;;;10.21;100.00;101324.72;5033431;28;20081;-71
2023/01/04 05:27:52;;;;;;;32.70;5.32;;;;;;;10.22;100.00;101329.16;5076623;28;20514;-71
2023/01/04 05:33:02;;;;;;;36.90;4.85;;;;;;;10.24;100.00;101326.94;5076685;28;20081;-71
2023/01/04 05:35:28;;;;;;;26.95;4.45;;;;;;;10.23;100.00;101325.28;5083433;28;20028;-71
2023/01/04 05:37:53;;;;;;;32.40;4.75;;;;;;;10.24;100.00;101321.41;5076385;28;20052;-71
2023/01/04 05:40:19;;;;;;;31.63;4.80;;;;;;;10.22;100.00;101326.38;5076572;28;20029;-72
2023/01/04 05:42:44;;;;;;;19.67;4.22;;;;;;;10.23;100.00;101328.91;5072055;28;20028;-72
2023/01/04 05:45:10;;;;;;;35.50;4.90;;;;;;;10.26;100.00;101327.53;5075798;28;20032;-72
2023/01/04 05:47:35;;;;;;;37.63;5.00;;;;;;;10.26;100.00;101331.13;5043122;28;20028;-72
2023/01/04 05:50:01;;;;;;;20.67;4.30;;;;;;;10.26;100.00;101321.97;5063147;28;20032;-72
2023/01/04 05:52:27;;;;;;;35.50;5.03;;;;;;;10.29;100.00;101332.56;5035912;28;20032;-72
2023/01/04 05:54:52;;;;;;;22.67;4.35;;;;;;;10.28;100.00;101333.69;5059826;28;20032;-72
2023/01/04 05:57:18;;;;;;;28.77;4.75;;;;;;;10.27;100.00;101335.59;5046073;28;20028;-72
2023/01/04 05:59:43;;;;;;;21.23;4.28;;;;;;;10.31;100.00;101340.59;5076225;28;20067;-72
2023/01/04 06:02:14;;;;;;;27.35;4.95;;;;;;;10.27;100.00;101331.97;5062829;28;20073;-72
2023/01/04 06:04:39;;;;;;;34.78;4.88;;;;;;;10.28;100.00;101337.28;5045813;28;20048;-72
2023/01/04 06:07:05;;;;;;;24.75;5.07;;;;;;;10.28;100.00;101336.44;5062716;28;20024;-72
2023/01/04 06:09:30;;;;;;;34.13;4.85;;;;;;;10.28;100.00;101326.19;5076211;28;20029;-72
2023/01/04 06:11:56;;;;;;;26.30;4.70;;;;;;;10.30;100.00;101331.44;5090608;28;20491;-72
2023/01/04 06:14:22;;;;;;;27.20;4.53;;;;;;;10.28;100.00;101339.22;5079208;28;20027;-71
2023/01/04 06:16:47;;;;;;;26.00;5.22;;;;;;;10.27;100.00;101338.38;5043519;28;20146;-72
2023/01/04 06:19:13;;;;;;;32.97;4.78;;;;;;;10.30;100.00;101348.09;5095536;28;20035;-72
2023/01/04 06:21:38;;;;;;;27.58;4.15;;;;;;;10.32;100.00;101340.34;5077085;28;20393;-71
2023/01/04 06:24:04;;;;;;;18.40;3.90;;;;;;;10.33;100.00;101343.94;5062445;28;20081;-72
2023/01/04 06:26:29;;;;;;;22.65;3.95;;;;;;;10.32;100.00;101343.13;5058630;28;20024;-72
2023/01/04 06:28:55;;;;;;;28.77;3.60;;;;;;;10.33;100.00;101347.56;5074399;28;20033;-71
2023/01/04 06:31:20;;;;;;;30.13;4.40;;;;;;;10.35;100.00;101341.75;5032968;28;20021;-72
2023/01/04 06:33:46;;;;;;;23.52;4.22;;;;;;;10.34;100.00;101348.41;5057294;28;20047;-71
2023/01/04 06:36:11;;;;;;;23.10;4.00;;;;;;;10.33;100.00;101350.31;5071374;28;20040;-71
2023/01/04 06:38:37;;;;;;;20.15;3.28;;;;;;;10.33;100.00;101352.28;5078502;28;20044;-71
2023/01/04 06:41:02;;;;;;;19.75;3.70;;;;;;;10.35;100.00;101348.13;5061559;28;20035;-72
2023/01/04 06:43:28;;;;;;;22.33;3.40;;;;;;;10.35;100.00;101353.69;5077300;28;20050;-72
2023/01/04 06:45:53;;;;;;;25.38;3.70;;;;;;;10.35;100.00;101352.84;5041978;28;20090;-71
2023/01/04 06:48:18;;;;;;;18.73;3.47;;;;;;;10.34;100.00;101354.78;5057095;28;20082;-72
2023/01/04 06:50:44;;;;;;;22.23;3.08;;;;;;;10.39;100.00;101353.97;5095368;28;20365;-71
2023/01/04 06:53:09;;;;;;;22.35;3.25;;;;;;;10.39;100.00;101351.19;5078247;28;20043;-72
2023/01/04 06:55:35;;;;;;;22.65;3.25;;;;;;;10.35;100.00;101347.28;5058105;28;20024;-72
2023/01/04 06:58:00;;;;;;;16.70;2.90;;;;;;;10.37;100.00;101357.03;5075079;28;20035;-72
2023/01/04 07:00:26;;;;;;;30.27;3.38;;;;;;;10.38;100.00;101349.53;5074868;28;20033;-72
2023/01/04 07:02:51;;;;;;;25.30;3.13;;;;;;;10.38;100.00;101349.53;5073274;28;20040;-71
2023/01/04 07:05:17;;;;;;;22.63;3.83;;;;;;;10.39;100.00;101349.25;5094982;28;20028;-72
2023/01/04 07:07:43;;;;;;;21.48;3.53;;;;;;;10.39;100.00;101353.97;5095133;28;20032;-72
2023/01/04 07:10:08;;;;;;;17.50;3.05;;;;;;;10.41;100.00;101352.56;5045041;28;20024;-72
2023/01/04 07:12:34;;;;;;;23.58;3.10;;;;;;;10.41;100.00;101355.34;5044627;28;20429;-72
2023/01/04 07:14:59;;;;;;;25.52;3.67;;;;;;;10.42;100.00;101353.41;5074840;28;20035;-71
2023/01/04 07:17:25;;;;;;;29.35;4.18;;;;;;;10.44;100.00;101353.97;5059962;28;20032;-72
2023/01/04 07:19:50;;;;;;;20.50;3.00;;;;;;;10.41;100.00;101360.91;5061470;28;20020;-72
2023/01/04 07:22:16;;;;;;;18.48;3.42;;;;;;;10.43;100.00;101355.09;5044347;28;20032;-72
2023/01/04 07:24:42;;;;;;;19.13;3.40;;;;;;;10.42;100.00;101367.28;5033962;28;20029;-71
2023/01/04 07:27:09;;;;;;;21.42;2.95;;;;;;;10.43;100.00;101368.97;5075626;28;20028;-71
2023/01/04 07:29:34;;;;;;;19.45;2.70;;;;;;;10.42;100.00;101367.28;5041272;28;20031;-72
2023/01/04 07:31:59;;;;;;;21.98;3.05;;;;;;;10.42;100.00;101367.28;5092571;28;20036;-72
2023/01/04 07:34:25;;;;;;;30.67;3.53;;;;;;;10.44;100.00;101378.97;5077439;28;20032;-72
2023/01/04 07:36:51;;;;;;;19.42;3.05;;;;;;;10.42;100.00;101373.72;5077439;28;20440;-72
2023/01/04 07:39:17;;;;;;;19.00;3.10;;;;;;;10.44;100.00;101378.97;5077947;28;20392;-71
2023/01/04 07:41:42;;;;;;;19.40;2.70;;;;;;;10.44;100.00;101385.34;5059803;28;20530;-71
2023/01/04 07:44:08;;;;;;;29.10;4.03;;;;;;;10.46;100.00;101391.47;5060793;28;20099;-72
2023/01/04 07:46:34;;;;;;;21.88;3.80;;;;;;;10.44;100.00;101390.09;5072705;28;20032;-72
2023/01/04 07:48:59;;;;;;;23.80;3.42;;;;;;;10.43;100.00;101392.03;5077608;28;20130;-72
2023/01/04 07:51:25;;;;;;;26.20;3.53;;;;;;;10.45;100.00;101389.00;5077518;28;20056;-71
2023/01/04 07:53:51;;;;;;;22.77;3.80;;;;;;;10.43;100.00;101392.03;5074328;28;20055;-72
2023/01/04 07:56:16;;;;;;;21.67;3.15;;;;;;;10.46;100.00;101397.03;5075564;28;20032;-72
2023/01/04 07:58:42;;;;;;;18.27;2.92;;;;;;;10.44;100.00;101387.31;5074094;28;20032;-71
2023/01/04 08:01:12;;;;;;;16.25;3.08;;;;;;;10.46;100.00;101383.16;5055591;28;20024;-72
2023/01/04 08:03:37;;;;;;;23.00;3.70;;;;;;;10.47;100.00;101379.28;5061527;28;20404;-72
2023/01/04 08:06:07;;;;;;;22.42;3.25;;;;;;;10.45;100.00;101386.22;5058592;28;20082;-72
2023/01/04 08:08:33;;;;;;;31.05;3.58;;;;;;;10.46;100.00;101397.03;5070234;28;20032;-72
2023/01/04 08:11:02;;;;;;;22.02;3.78;;;;;;;10.44;100.00;101390.91;5077526;28;20029;-71
2023/01/04 08:13:28;;;;;;;15.52;3.00;;;;;;;10.48;100.00;101399.56;5060745;28;20028;-73
2023/01/04 08:15:53;;;;;;;17.77;2.83;;;;;;;10.46;100.00;101391.47;5098748;28;20032;-72
2023/01/04 08:18:19;;;;;;;24.40;3.92;;;;;;;10.45;100.00;101389.00;5081184;28;20024;-71
2023/01/04 08:20:44;;;;;;;17.02;2.67;;;;;;;10.47;100.00;101404.28;5077641;28;20039;-72
2023/01/04 08:23:09;;;;;;;20.02;2.50;;;;;;;10.47;100.00;101398.72;5074051;28;20032;-71
2023/01/04 08:25:35;;;;;;;17.95;2.58;;;;;;;10.50;100.00;101405.66;5047869;28;20028;-72
2023/01/04 08:28:01;;;;;;;23.70;3.00;;;;;;;10.50;100.00;101398.19;5047967;28;20024;-71
2023/01/04 08:30:26;;;;;;;19.38;2.90;;;;;;;10.50;100.00;101411.19;5064669;28;20024;-72
2023/01/04 08:32:52;;;;;;;18.88;3.00;;;;;;;10.51;100.00;101410.94;5075531;28;20043;-72
2023/01/04 08:35:19;;;;;;;12.60;2.30;;;;;;;10.50;100.00;101408.44;5059367;28;20025;-73
2023/01/04 08:37:44;;;;;;;12.95;2.50;;;;;;;10.54;100.00;101414.28;5056043;28;20071;-72
2023/01/04 08:40:10;;;;;;;12.25;2.50;;;;;;;10.55;100.00;101414.00;5081044;28;20024;-73
2023/01/04 08:42:36;;;;;;;13.15;2.65;;;;;;;10.55;100.00;101418.72;5087978;28;20051;-72
2023/01/04 08:45:01;;;;;;;14.38;2.35;;;;;;;10.56;100.00;101412.06;5076017;28;20058;-72
2023/01/04 08:47:30;;;;;;;12.05;2.47;;;;;;;10.58;100.00;101410.69;5067696;28;20036;-72
2023/01/04 08:49:55;;;;;;;13.30;2.13;;;;;;;10.58;100.00;101418.19;5062812;28;20032;-72
2023/01/04 08:52:21;;;;;;;11.43;2.38;;;;;;;10.58;100.00;101407.06;5097759;28;20035;-72
2023/01/04 08:54:48;;;;;;;12.00;1.95;;;;;;;10.59;100.00;101406.00;5063799;28;20024;-73
2023/01/04 08:57:14;;;;;;;10.02;2.20;;;;;;;10.60;100.00;101402.91;5080609;28;20541;-72
2023/01/04 08:59:40;;;;;;;8.88;2.03;;;;;;;10.63;100.00;101405.16;5047268;28;20051;-72
2023/01/04 09:02:31;;;;;;;10.60;1.85;;;;;;;10.65;100.00;101399.34;5080678;28;20520;-72
2023/01/04 09:04:59;;;;;;;11.27;1.88;;;;;;;10.64;100.00;101405.97;5096483;28;20067;-72
2023/01/04 09:07:27;;;;;;;12.23;2.10;;;;;;;10.66;100.00;101403.78;5096150;28;20036;-72
2023/01/04 09:09:53;;;;;;;9.63;2.28;;;;;;;10.68;100.00;101410.72;5080162;28;20035;-72
2023/01/04 09:12:18;;;;;;;12.50;2.20;;;;;;;10.70;100.00;101400.19;5080446;28;20024;-72
2023/01/04 09:14:44;;;;;;;11.13;2.15;;;;;;;10.74;100.00;101408.81;5080296;28;20080;-72
2023/01/04 09:17:09;;;;;;;8.68;1.90;;;;;;;10.73;100.00;101418.25;5097039;28;20024;-72
2023/01/04 09:19:35;;;;;;;11.82;2.20;;;;;;;10.78;100.00;101415.50;5079955;28;20028;-72
2023/01/04 09:22:00;;;;;;;7.45;1.55;;;;;;;10.80;100.00;101410.47;5063480;28;20442;-73
2023/01/04 09:24:26;;;;;;;7.60;1.60;;;;;;;10.81;100.00;101419.66;5079821;28;20032;-72
2023/01/04 09:26:51;;;;;;;9.70;1.77;;;;;;;10.83;100.00;101418.25;5061791;28;20039;-72
2023/01/04 09:29:17;;;;;;;8.85;2.10;;;;;;;10.86;100.00;101423.28;5063290;28;20027;-71
2023/01/04 09:31:42;;;;;;;7.72;1.60;;;;;;;10.88;100.00;101431.34;5062572;28;20035;-72
2023/01/04 09:34:08;;;;;;;6.28;1.35;;;;;;;10.90;100.00;101440.25;5081827;28;20033;-72
2023/01/04 09:36:34;;;;;;;8.63;1.25;;;;;;;10.92;100.00;101433.31;5074751;28;20072;-72
2023/01/04 09:38:59;;;;;;;8.02;1.83;;;;;;;10.94;100.00;101444.13;5070640;28;20036;-72
2023/01/04 09:41:29;;;;;;;8.40;1.50;;;;;;;10.93;100.00;101454.44;5057836;28;20029;-72
2023/01/04 09:43:57;;;;;;;7.32;1.63;;;;;;;10.99;100.00;101437.78;5058293;28;20028;-72
2023/01/04 09:46:42;;;;;;;9.00;1.83;;;;;;;10.99;100.00;101446.94;5076561;28;20319;-72
2023/01/04 09:49:18;;;;;;;6.00;1.63;;;;;;;11.00;100.00;101456.94;5050307;28;20111;-72
2023/01/04 09:52:12;;;;;;;7.57;1.52;;;;;;;11.02;100.00;101448.34;5067200;28;20077;-72
2023/01/04 09:54:50;;;;;;;6.20;1.27;;;;;;;11.03;100.00;101444.44;5076038;28;20135;-73
2023/01/04 09:57:22;;;;;;;9.23;2.10;;;;;;;11.06;100.00;101447.53;5073259;28;20032;-72
2023/01/04 09:59:48;;;;;;;6.47;1.40;;;;;;;11.06;100.00;101449.44;5096398;28;20036;-72
2023/01/04 10:02:16;;;;;;;5.50;1.17;;;;;;;11.06;100.00;101452.22;5062760;28;20024;-72
2023/01/04 10:04:47;;;;;;;4.45;1.00;;;;;;;11.07;100.00;101443.63;5059691;28;20039;-72
2023/01/04 10:07:27;;;;;;;5.50;1.35;;;;;;;11.08;100.00;101461.13;5075400;28;20039;-72
2023/01/04 10:09:53;;;;;;;5.70;1.10;;;;;;;11.08;100.00;101458.34;5080804;28;20036;-72
2023/01/04 10:12:37;;;;;;;5.63;1.40;;;;;;;11.06;100.00;101461.44;5045979;28;20028;-72
2023/01/04 10:15:31;;;;;;;5.30;1.00;;;;;;;11.10;100.00;101462.53;5064932;28;20030;-72
2023/01/04 10:17:59;;;;;;;6.00;1.30;;;;;;;11.10;100.00;101461.72;5087327;28;20032;-72
2023/01/04 10:20:46;;;;;;;3.50;1.10;;;;;;;11.09;100.00;101472.00;5097123;28;20035;-72
2023/01/04 10:23:44;;;;;;;6.82;1.13;;;;;;;11.11;100.00;101472.53;5063656;28;20035;-72
2023/01/04 10:26:12;;;;;;;4.43;1.00;;;;;;;11.14;100.00;101471.16;5085381;28;20040;-72
2023/01/04 10:28:46;;;;;;;4.68;0.95;;;;;;;11.15;100.00;101475.63;5078842;28;20064;-72
2023/01/04 10:31:34;;;;;;;6.32;1.20;;;;;;;11.17;100.00;101465.91;5095916;28;20032;-72
2023/01/04 10:34:39;;;;;;;6.45;1.58;;;;;;;11.19;100.00;101462.81;5082872;28;20472;-72
2023/01/04 10:37:16;;;;;;;6.10;1.02;;;;;;;11.22;100.00;101462.28;5063769;28;20060;-72
2023/01/04 10:39:42;;;;;;;6.88;1.20;;;;;;;11.23;100.00;101466.75;5059934;28;20033;-72
2023/01/04 10:42:21;;;;;;;5.72;1.05;;;;;;;11.22;100.00;101467.84;5060943;28;20028;-72
2023/01/04 10:44:56;;;;;;;4.22;0.80;;;;;;;11.22;100.00;101465.06;5045692;28;20039;-72
2023/01/04 10:47:41;;;;;;;5.47;1.45;;;;;;;11.28;100.00;101458.41;5095048;28;20028;-72
2023/01/04 10:50:18;;;;;;;6.03;1.13;;;;;;;11.28;100.00;101454.78;5078436;28;20040;-72
2023/01/04 10:52:55;;;;;;;10.52;1.67;;;;;;;11.31;100.00;101457.84;5060302;28;20035;-72
2023/01/04 10:55:43;;;;;;;5.15;1.10;;;;;;;11.33;100.00;101454.78;5095368;28;20024;-72
2023/01/04 10:58:31;;;;;;;7.80;1.33;;;;;;;11.34;100.00;101445.34;5058312;28;20046;-72
2023/01/04 11:01:00;;;;;;;9.38;1.40;;;;;;;11.35;100.00;101452.56;5074709;28;20059;-72
2023/01/04 11:03:30;;;;;;;7.97;1.50;;;;;;;11.35;100.00;101442.28;5061707;28;20446;-72
2023/01/04 11:06:04;;;;;;;6.55;1.50;;;;;;;11.36;100.00;101443.94;5069506;28;20028;-72
2023/01/04 11:08:44;;;;;;;10.20;1.80;;;;;;;11.36;100.00;101448.66;5074748;28;20099;-72
2023/01/04 11:11:14;;;;;;;10.73;1.80;;;;;;;11.38;100.00;101433.38;5078418;28;20073;-72
2023/01/04 11:13:40;;;;;;;10.40;1.98;;;;;;;11.37;100.00;101440.06;5061611;28;20036;-72
2023/01/04 11:16:06;;;;;;;12.90;1.80;;;;;;;11.39;100.00;101442.56;5077918;28;20031;-72
2023/01/04 11:18:31;;;;;;;11.60;1.90;;;;;;;11.39;100.00;101437.84;5061049;28;20035;-72
2023/01/04 11:20:57;;;;;;;10.13;2.00;;;;;;;11.41;100.00;101437.56;5077293;28;20032;-72
2023/01/04 11:23:24;;;;;;;11.15;1.85;;;;;;;11.46;100.00;101442.28;5058041;28;20062;-73
2023/01/04 11:25:57;;;;;;;8.65;2.17;;;;;;;11.46;100.00;101437.56;5049952;28;20033;-72
2023/01/04 11:28:27;;;;;;;10.60;2.28;;;;;;;11.48;100.00;101442.84;5036752;28;20028;-72
2023/01/04 11:31:12;;;;;;;9.30;2.30;;;;;;;11.50;100.00;101440.63;5041437;28;20093;-72
2023/01/04 11:34:00;;;;;;;10.43;2.40;;;;;;;11.53;100.00;101434.50;5075472;28;20415;-72
2023/01/04 11:36:45;;;;;;;10.55;2.20;;;;;;;11.52;100.00;101428.09;5043766;28;20085;-72
2023/01/04 11:39:21;;;;;;;9.48;1.63;;;;;;;11.54;100.00;101437.00;5059146;28;20032;-72
2023/01/04 11:41:56;;;;;;;14.88;2.63;;;;;;;11.56;100.00;101437.56;5057638;28;20133;-72
2023/01/04 11:44:22;;;;;;;8.23;2.42;;;;;;;11.57;100.00;101432.84;5039855;28;20031;-72
2023/01/04 11:47:04;;;;;;;7.03;2.20;;;;;;;11.57;100.00;101432.84;5076427;28;20024;-72
2023/01/04 11:49:35;;;;;;;11.27;2.20;;;;;;;11.57;100.00;101432.84;5074805;28;20032;-72
2023/01/04 11:52:00;;;;;;;9.80;2.28;;;;;;;11.57;100.00;101435.63;5057839;28;20028;-72
2023/01/04 11:54:26;;;;;;;8.30;2.10;;;;;;;11.56;100.00;101437.56;5073935;28;20028;-72
2023/01/04 11:57:09;;;;;;;8.00;2.20;;;;;;;11.57;100.00;101432.84;5077306;28;20028;-73
2023/01/04 11:59:35;;;;;;;10.48;2.10;;;;;;;11.57;100.00;101441.19;5078295;28;20039;-72